createdAt,value
2022-12-26T00:00:23.914Z,9.711593
2022-12-26T00:01:23.811Z,9.711669
2022-12-26T00:02:23.838Z,9.711612
2022-12-26T00:03:23.898Z,9.711627
2022-12-26T00:04:52.302Z,9.711658
2022-12-26T00:05:24.750Z,9.711672
2022-12-26T00:06:23.754Z,9.711637
2022-12-26T00:07:23.743Z,9.711665
2022-12-26T00:08:23.731Z,9.711642
2022-12-26T00:09:23.736Z,9.711705
2022-12-26T00:10:23.707Z,9.711681
2022-12-26T00:11:23.695Z,9.711568
2022-12-26T00:12:23.700Z,9.711586
2022-12-26T00:13:39.913Z,9.711569
2022-12-26T00:14:24.687Z,9.711593
2022-12-26T00:15:23.672Z,9.711448
2022-12-26T00:16:23.689Z,9.711600
2022-12-26T00:17:23.647Z,9.711699
2022-12-26T00:18:23.637Z,9.711632
2022-12-26T00:19:23.623Z,9.711583
2022-12-26T00:25:30.967Z,9.711719
2022-12-26T00:32:25.490Z,9.711496
2022-12-26T00:33:25.436Z,9.711372
2022-12-26T00:34:25.477Z,9.711351
2022-12-26T00:35:25.441Z,9.711596
2022-12-26T00:36:25.436Z,9.711753
2022-12-26T00:37:25.410Z,9.711623
2022-12-26T00:38:25.403Z,9.711476
2022-12-26T00:39:25.396Z,9.711569
2022-12-26T00:40:25.386Z,9.711493
2022-12-26T00:41:25.379Z,9.711612
2022-12-26T00:46:33.432Z,9.711720
2022-12-26T00:47:33.342Z,9.711523
2022-12-26T00:48:33.322Z,9.711565
2022-12-26T00:50:14.948Z,9.711562
2022-12-26T00:50:34.993Z,9.711621
2022-12-26T00:51:34.302Z,9.711607
2022-12-26T00:52:35.080Z,9.711537
2022-12-26T00:53:33.274Z,9.711514
2022-12-26T00:54:33.278Z,9.711600
2022-12-26T00:55:33.257Z,9.711441
2022-12-26T00:56:33.253Z,9.711602
2022-12-26T00:57:34.253Z,9.711654
2022-12-26T00:58:33.241Z,9.711612
2022-12-26T00:59:33.229Z,9.711604
2022-12-26T01:00:33.241Z,9.711595
2022-12-26T01:01:35.256Z,9.711598
2022-12-26T01:02:33.334Z,9.711689
2022-12-26T01:03:35.072Z,9.711576
2022-12-26T01:04:33.192Z,9.711571
2022-12-26T01:05:33.190Z,9.711601
2022-12-26T01:06:33.177Z,9.711543
2022-12-26T01:07:33.166Z,9.711596
2022-12-26T01:08:33.152Z,9.711627
2022-12-26T01:09:33.137Z,9.711675
2022-12-26T01:10:35.661Z,9.711685
2022-12-26T01:11:33.127Z,9.711631
2022-12-26T01:12:33.137Z,9.711595
2022-12-26T01:13:33.117Z,9.711502
2022-12-26T01:14:34.094Z,9.711616
2022-12-26T01:15:33.096Z,9.711654
2022-12-26T01:16:33.186Z,9.711674
2022-12-26T01:17:33.096Z,9.711597
2022-12-26T01:18:33.115Z,9.711584
2022-12-26T01:19:33.060Z,9.711582
2022-12-26T01:20:33.067Z,9.711607
2022-12-26T01:21:33.058Z,9.711720
2022-12-26T01:22:33.041Z,9.711733
2022-12-26T01:23:33.036Z,9.711666
2022-12-26T01:24:33.026Z,9.711745
2022-12-26T01:25:33.007Z,9.711666
2022-12-26T01:26:33.010Z,9.711714
2022-12-26T01:27:32.998Z,9.711664
2022-12-26T01:28:33.031Z,9.711770
2022-12-26T01:29:32.993Z,9.711788
2022-12-26T01:30:32.976Z,9.711798
2022-12-26T01:31:33.635Z,9.711714
2022-12-26T01:32:32.990Z,9.711676
2022-12-26T01:33:32.939Z,9.711556
2022-12-26T01:34:32.942Z,9.711477
2022-12-26T01:35:32.933Z,9.711775
2022-12-26T01:36:32.941Z,9.711777
2022-12-26T01:37:33.183Z,9.711930
2022-12-26T01:38:32.896Z,9.711733
2022-12-26T01:39:32.891Z,9.711797
2022-12-26T01:40:32.895Z,9.712024
2022-12-26T01:41:33.672Z,9.711864
2022-12-26T01:42:32.882Z,9.712285
2022-12-26T01:43:32.865Z,9.712115
2022-12-26T01:44:32.852Z,9.712150
2022-12-26T01:45:32.928Z,9.712071
2022-12-26T01:46:32.850Z,9.711767
2022-12-26T01:47:32.843Z,9.711909
2022-12-26T01:48:32.830Z,9.711911
2022-12-26T01:49:32.838Z,9.712185
2022-12-26T01:50:32.816Z,9.711864
2022-12-26T01:51:32.808Z,9.711895
2022-12-26T01:52:32.798Z,9.711799
2022-12-26T01:53:32.781Z,9.711850
2022-12-26T01:54:37.602Z,9.711561
2022-12-26T01:55:33.791Z,9.711679
2022-12-26T01:56:32.769Z,9.711925
2022-12-26T01:57:32.756Z,9.711916
2022-12-26T01:58:32.816Z,9.711670
2022-12-26T01:59:32.735Z,9.712205
2022-12-26T02:00:32.737Z,9.711801
2022-12-26T02:01:32.942Z,9.712123
2022-12-26T02:02:32.795Z,9.711551
2022-12-26T02:03:32.710Z,9.711571
2022-12-26T02:04:32.696Z,9.711407
2022-12-26T02:05:32.699Z,9.711666
2022-12-26T02:06:32.681Z,9.711771
2022-12-26T02:07:32.673Z,9.711872
2022-12-26T02:08:32.668Z,9.711822
2022-12-26T02:09:32.650Z,9.711613
2022-12-26T02:10:32.647Z,9.711662
2022-12-26T02:11:33.600Z,9.712079
2022-12-26T02:12:34.238Z,9.711738
2022-12-26T02:13:33.620Z,9.711680
2022-12-26T02:14:32.619Z,9.711864
2022-12-26T02:15:32.618Z,9.711848
2022-12-26T02:16:32.666Z,9.711512
2022-12-26T02:17:32.611Z,9.712240
2022-12-26T02:18:32.594Z,9.712271
2022-12-26T02:19:32.588Z,9.712045
2022-12-26T02:20:32.582Z,9.712242
2022-12-26T02:21:32.601Z,9.711806
2022-12-26T02:22:32.553Z,9.711849
2022-12-26T02:23:32.564Z,9.712449
2022-12-26T02:24:32.538Z,9.712772
2022-12-26T02:25:32.538Z,9.711916
2022-12-26T02:26:32.509Z,9.711638
2022-12-26T02:27:32.513Z,9.711636
2022-12-26T02:28:32.500Z,9.711679
2022-12-26T02:29:32.492Z,9.711709
2022-12-26T02:30:32.487Z,9.711818
2022-12-26T02:31:32.536Z,9.711827
2022-12-26T02:32:32.480Z,9.711701
2022-12-26T02:33:32.455Z,9.711752
2022-12-26T02:34:32.455Z,9.711781
2022-12-26T02:35:32.441Z,9.711770
2022-12-26T02:36:32.431Z,9.711776
2022-12-26T02:37:32.442Z,9.711808
2022-12-26T02:38:32.419Z,9.711828
2022-12-26T02:39:45.226Z,9.711819
2022-12-26T02:40:33.408Z,9.711745
2022-12-26T02:41:32.397Z,9.711596
2022-12-26T02:42:32.386Z,9.711749
2022-12-26T02:43:32.381Z,9.711729
2022-12-26T02:44:32.366Z,9.711595
2022-12-26T02:45:32.434Z,9.711895
2022-12-26T02:46:32.434Z,9.711835
2022-12-26T02:47:32.338Z,9.711832
2022-12-26T02:48:32.337Z,9.711833
2022-12-26T02:49:32.332Z,9.711815
2022-12-26T02:50:32.310Z,9.711785
2022-12-26T02:51:32.320Z,9.711784
2022-12-26T02:52:32.300Z,9.711629
2022-12-26T02:53:33.208Z,9.711805
2022-12-26T02:54:32.277Z,9.711733
2022-12-26T02:55:32.285Z,9.711876
2022-12-26T02:56:32.269Z,9.711794
2022-12-26T02:57:32.256Z,9.711782
2022-12-26T02:58:32.265Z,9.711740
2022-12-26T02:59:54.406Z,9.712036
2022-12-26T03:00:33.237Z,9.712037
2022-12-26T03:01:32.335Z,9.711778
2022-12-26T03:02:32.443Z,9.711890
2022-12-26T03:03:32.343Z,9.711827
2022-12-26T03:04:32.202Z,9.711789
2022-12-26T03:05:32.183Z,9.711761
2022-12-26T03:06:33.198Z,9.711811
2022-12-26T03:07:32.189Z,9.711771
2022-12-26T03:08:32.156Z,9.711685
2022-12-26T03:09:33.168Z,9.711898
2022-12-26T03:10:32.146Z,9.711853
2022-12-26T03:11:32.145Z,9.711889
2022-12-26T03:12:32.157Z,9.711725
2022-12-26T03:13:32.138Z,9.711858
2022-12-26T03:14:32.124Z,9.711799
2022-12-26T03:15:32.126Z,9.711904
2022-12-26T03:16:32.212Z,9.711647
2022-12-26T03:17:32.103Z,9.711788
2022-12-26T03:18:57.044Z,9.711714
2022-12-26T03:19:33.105Z,9.711779
2022-12-26T03:20:32.082Z,9.712098
2022-12-26T03:21:32.080Z,9.711964
2022-12-26T03:22:32.084Z,9.711987
2022-12-26T03:23:32.687Z,9.711907
2022-12-26T03:24:32.050Z,9.711782
2022-12-26T03:25:32.032Z,9.711883
2022-12-26T03:26:32.024Z,9.711712
2022-12-26T03:27:32.597Z,9.711929
2022-12-26T03:28:32.691Z,9.711987
2022-12-26T03:29:32.012Z,9.712055
2022-12-26T03:30:32.040Z,9.712134
2022-12-26T03:31:31.989Z,9.712135
2022-12-26T03:32:31.983Z,9.712450
2022-12-26T03:33:31.980Z,9.712498
2022-12-26T03:34:31.977Z,9.712328
2022-12-26T03:35:31.961Z,9.711991
2022-12-26T03:36:31.969Z,9.712003
2022-12-26T03:37:47.830Z,9.711791
2022-12-26T03:38:32.943Z,9.712086
2022-12-26T03:39:31.918Z,9.712277
2022-12-26T03:40:31.918Z,9.712398
2022-12-26T03:41:31.915Z,9.712251
2022-12-26T03:42:31.896Z,9.712289
2022-12-26T03:43:31.900Z,9.712111
2022-12-26T03:44:31.893Z,9.712243
2022-12-26T03:45:31.869Z,9.712290
2022-12-26T03:46:31.934Z,9.712456
2022-12-26T03:47:31.857Z,9.712223
2022-12-26T03:48:31.848Z,9.712179
2022-12-26T03:49:31.849Z,9.712346
2022-12-26T03:50:31.837Z,9.712126
2022-12-26T03:51:31.827Z,9.711904
2022-12-26T03:52:31.821Z,9.711781
2022-12-26T03:53:31.815Z,9.711708
2022-12-26T03:54:31.816Z,9.711963
2022-12-26T03:55:31.790Z,9.712045
2022-12-26T03:56:32.839Z,9.712090
2022-12-26T03:57:32.793Z,9.711985
2022-12-26T03:58:31.796Z,9.712398
2022-12-26T03:59:31.817Z,9.712264
2022-12-26T04:00:31.786Z,9.712080
2022-12-26T04:01:31.791Z,9.711656
2022-12-26T04:02:31.899Z,9.711471
2022-12-26T04:03:31.763Z,9.711540
2022-12-26T04:04:31.735Z,9.711684
2022-12-26T04:05:31.744Z,9.711727
2022-12-26T04:06:31.734Z,9.711658
2022-12-26T04:07:31.707Z,9.711507
2022-12-26T04:08:31.715Z,9.711470
2022-12-26T04:09:31.703Z,9.711484
2022-12-26T04:10:31.685Z,9.711486
2022-12-26T04:11:31.674Z,9.711649
2022-12-26T04:12:31.663Z,9.711719
2022-12-26T04:13:31.672Z,9.711761
2022-12-26T04:14:31.658Z,9.711883
2022-12-26T04:15:31.685Z,9.711867
2022-12-26T04:16:31.652Z,9.711638
2022-12-26T04:17:31.630Z,9.711756
2022-12-26T04:18:31.621Z,9.712029
2022-12-26T04:19:31.634Z,9.711981
2022-12-26T04:20:32.212Z,9.711858
2022-12-26T04:21:31.586Z,9.711641
2022-12-26T04:22:31.588Z,9.711907
2022-12-26T04:23:31.589Z,9.711778
2022-12-26T04:24:31.573Z,9.711885
2022-12-26T04:25:50.155Z,9.711590
2022-12-26T04:26:32.549Z,9.711361
2022-12-26T04:27:31.570Z,9.711305
2022-12-26T04:28:31.551Z,9.712058
2022-12-26T04:29:32.138Z,9.711896
2022-12-26T04:30:31.632Z,9.712095
2022-12-26T04:31:31.595Z,9.711990
2022-12-26T04:32:31.500Z,9.712235
2022-12-26T04:33:31.504Z,9.712286
2022-12-26T04:34:31.521Z,9.712177
2022-12-26T04:35:31.489Z,9.712027
2022-12-26T04:36:31.473Z,9.711777
2022-12-26T04:37:31.461Z,9.711977
2022-12-26T04:38:31.476Z,9.711749
2022-12-26T04:39:31.449Z,9.712105
2022-12-26T04:40:31.450Z,9.712355
2022-12-26T04:41:31.444Z,9.712543
2022-12-26T04:42:31.423Z,9.712391
2022-12-26T04:43:46.639Z,9.712045
2022-12-26T04:44:32.422Z,9.711851
2022-12-26T04:45:31.400Z,9.711855
2022-12-26T04:46:31.523Z,9.711765
2022-12-26T04:47:31.393Z,9.711881
2022-12-26T04:48:31.377Z,9.712055
2022-12-26T04:49:31.390Z,9.712467
2022-12-26T04:50:31.372Z,9.712956
2022-12-26T04:51:31.360Z,9.712274
2022-12-26T04:52:31.345Z,9.712455
2022-12-26T04:53:31.339Z,9.712252
2022-12-26T04:54:31.323Z,9.712124
2022-12-26T04:55:31.346Z,9.712070
2022-12-26T04:56:31.329Z,9.712185
2022-12-26T04:57:31.303Z,9.711739
2022-12-26T04:58:31.298Z,9.711744
2022-12-26T04:59:31.278Z,9.711667
2022-12-26T05:00:31.274Z,9.711595
2022-12-26T05:01:31.430Z,9.711763
2022-12-26T05:02:31.436Z,9.711719
2022-12-26T05:03:31.278Z,9.711701
2022-12-26T05:04:31.253Z,9.711563
2022-12-26T05:05:32.135Z,9.711574
2022-12-26T05:06:31.229Z,9.711569
2022-12-26T05:07:31.225Z,9.711653
2022-12-26T05:08:31.212Z,9.711426
2022-12-26T05:09:31.203Z,9.711769
2022-12-26T05:10:31.193Z,9.711860
2022-12-26T05:11:31.205Z,9.711713
2022-12-26T05:12:31.189Z,9.711873
2022-12-26T05:13:31.173Z,9.712007
2022-12-26T05:25:38.952Z,9.710490
2022-12-26T05:26:38.956Z,9.710558
2022-12-26T05:27:38.936Z,9.710946
2022-12-26T05:28:38.941Z,9.711180
2022-12-26T05:29:38.919Z,9.711201
2022-12-26T05:30:38.932Z,9.711102
2022-12-26T05:31:38.966Z,9.711011
2022-12-26T05:32:38.892Z,9.711084
2022-12-26T05:33:38.902Z,9.710983
2022-12-26T05:34:39.398Z,9.711060
2022-12-26T05:35:38.904Z,9.711186
2022-12-26T05:36:38.881Z,9.710906
2022-12-26T05:37:38.899Z,9.710967
2022-12-26T05:38:38.857Z,9.710893
2022-12-26T05:39:38.841Z,9.710972
2022-12-26T05:40:38.853Z,9.711022
2022-12-26T05:41:38.828Z,9.711057
2022-12-26T05:42:38.846Z,9.711003
2022-12-26T05:43:38.809Z,9.711070
2022-12-26T05:44:39.817Z,9.710888
2022-12-26T05:45:38.797Z,9.710834
2022-12-26T05:46:38.844Z,9.710730
2022-12-26T05:47:38.788Z,9.710699
2022-12-26T05:48:38.777Z,9.710827
2022-12-26T05:49:38.776Z,9.710860
2022-12-26T05:50:38.746Z,9.710876
2022-12-26T05:51:39.758Z,9.710839
2022-12-26T05:52:38.757Z,9.710901
2022-12-26T05:53:38.744Z,9.711259
2022-12-26T05:54:38.739Z,9.711238
2022-12-26T05:55:38.721Z,9.711148
2022-12-26T05:56:40.906Z,9.711029
2022-12-26T05:57:40.301Z,9.710957
2022-12-26T05:58:38.699Z,9.711813
2022-12-26T05:59:38.686Z,9.712775
2022-12-26T06:00:38.675Z,9.713215
2022-12-26T06:01:38.845Z,9.712911
2022-12-26T06:02:38.783Z,9.711630
2022-12-26T06:03:38.743Z,9.711481
2022-12-26T06:04:38.643Z,9.711303
2022-12-26T06:05:38.641Z,9.711020
2022-12-26T06:06:38.647Z,9.711175
2022-12-26T06:07:38.622Z,9.711143
2022-12-26T06:08:38.613Z,9.711072
2022-12-26T06:09:38.622Z,9.711106
2022-12-26T06:10:38.617Z,9.711246
2022-12-26T06:11:42.530Z,9.711288
2022-12-26T06:12:39.593Z,9.711436
2022-12-26T06:13:38.573Z,9.711102
2022-12-26T06:14:38.573Z,9.711321
2022-12-26T06:15:38.564Z,9.711441
2022-12-26T06:16:38.629Z,9.711442
2022-12-26T06:17:38.539Z,9.711343
2022-12-26T06:18:38.530Z,9.711247
2022-12-26T06:19:44.679Z,9.711223
2022-12-26T06:20:40.528Z,9.711126
2022-12-26T06:21:38.508Z,9.711189
2022-12-26T06:22:38.510Z,9.711219
2022-12-26T06:23:38.499Z,9.711350
2022-12-26T06:24:38.467Z,9.711452
2022-12-26T06:25:39.497Z,9.711420
2022-12-26T06:26:38.486Z,9.711476
2022-12-26T06:27:38.484Z,9.711588
2022-12-26T06:28:38.465Z,9.711599
2022-12-26T06:29:39.443Z,9.711434
2022-12-26T06:30:38.444Z,9.711475
2022-12-26T06:31:38.468Z,9.711514
2022-12-26T06:32:38.417Z,9.711849
2022-12-26T06:33:38.419Z,9.711997
2022-12-26T06:34:38.408Z,9.711844
2022-12-26T06:35:38.402Z,9.711645
2022-12-26T06:36:38.393Z,9.711699
2022-12-26T06:37:38.517Z,9.711559
2022-12-26T06:38:38.371Z,9.711652
2022-12-26T06:39:39.901Z,9.711506
2022-12-26T06:40:38.362Z,9.711521
2022-12-26T06:41:38.373Z,9.711562
2022-12-26T06:42:38.348Z,9.711639
2022-12-26T06:43:38.341Z,9.711585
2022-12-26T06:44:38.331Z,9.711746
2022-12-26T06:45:38.327Z,9.711929
2022-12-26T06:46:38.359Z,9.711733
2022-12-26T06:47:38.319Z,9.711675
2022-12-26T06:48:38.302Z,9.711640
2022-12-26T06:49:38.288Z,9.711638
2022-12-26T06:50:38.290Z,9.711597
2022-12-26T06:51:38.302Z,9.711606
2022-12-26T06:52:38.267Z,9.711694
2022-12-26T06:53:38.279Z,9.711678
2022-12-26T06:54:38.256Z,9.711661
2022-12-26T06:55:38.241Z,9.711580
2022-12-26T06:56:38.231Z,9.711594
2022-12-26T06:57:38.223Z,9.711571
2022-12-26T06:58:38.233Z,9.711562
2022-12-26T06:59:38.234Z,9.711561
2022-12-26T07:00:38.248Z,9.711579
2022-12-26T07:01:38.454Z,9.711568
2022-12-26T07:02:38.337Z,9.711598
2022-12-26T07:03:38.197Z,9.711584
2022-12-26T07:04:38.177Z,9.711586
2022-12-26T07:05:38.188Z,9.711591
2022-12-26T07:06:38.161Z,9.711571
2022-12-26T07:07:38.160Z,9.711487
2022-12-26T07:08:38.827Z,9.711463
2022-12-26T07:09:38.128Z,9.711453
2022-12-26T07:10:38.116Z,9.711595
2022-12-26T07:11:38.113Z,9.711437
2022-12-26T07:12:38.133Z,9.711596
2022-12-26T07:13:38.120Z,9.711719
2022-12-26T07:14:38.088Z,9.711608
2022-12-26T07:15:38.091Z,9.711573
2022-12-26T07:16:38.114Z,9.711621
2022-12-26T07:17:38.076Z,9.711595
2022-12-26T07:18:38.123Z,9.711611
2022-12-26T07:19:38.066Z,9.711525
2022-12-26T07:20:38.051Z,9.711699
2022-12-26T07:21:40.672Z,9.711646
2022-12-26T07:22:39.020Z,9.711673
2022-12-26T07:23:38.023Z,9.711644
2022-12-26T07:24:38.014Z,9.711699
2022-12-26T07:25:38.004Z,9.711662
2022-12-26T07:26:37.998Z,9.711471
2022-12-26T07:27:37.982Z,9.711634
2022-12-26T07:28:37.984Z,9.711750
2022-12-26T07:29:38.047Z,9.711737
2022-12-26T07:30:38.913Z,9.711806
2022-12-26T07:31:38.003Z,9.711709
2022-12-26T07:32:41.905Z,9.711587
2022-12-26T07:33:37.961Z,9.711618
2022-12-26T07:34:39.011Z,9.711664
2022-12-26T07:35:38.982Z,9.711591
2022-12-26T07:36:37.926Z,9.711683
2022-12-26T07:37:37.898Z,9.711541
2022-12-26T07:38:38.087Z,9.711926
2022-12-26T07:39:37.892Z,9.712051
2022-12-26T07:40:37.977Z,9.712077
2022-12-26T07:41:37.867Z,9.712052
2022-12-26T07:42:39.405Z,9.712002
2022-12-26T07:43:38.852Z,9.711808
2022-12-26T07:44:37.931Z,9.711875
2022-12-26T07:45:45.042Z,9.711904
2022-12-26T07:46:39.995Z,9.711993
2022-12-26T07:47:37.828Z,9.711860
2022-12-26T07:48:37.821Z,9.711679
2022-12-26T07:49:37.830Z,9.711756
2022-12-26T07:50:37.803Z,9.711802
2022-12-26T07:51:37.792Z,9.711818
2022-12-26T07:52:37.844Z,9.711783
2022-12-26T07:53:37.786Z,9.711783
2022-12-26T07:54:37.773Z,9.711752
2022-12-26T07:55:37.769Z,9.711679
2022-12-26T07:56:37.752Z,9.711722
2022-12-26T07:57:48.764Z,9.711795
2022-12-26T07:58:39.734Z,9.711720
2022-12-26T07:59:37.726Z,9.711622
2022-12-26T08:00:38.340Z,9.711678
2022-12-26T08:01:37.789Z,9.711630
2022-12-26T08:02:39.090Z,9.711676
2022-12-26T08:03:37.771Z,9.711781
2022-12-26T08:04:37.691Z,9.711701
2022-12-26T08:05:37.681Z,9.711772
2022-12-26T08:06:37.666Z,9.711694
2022-12-26T08:07:37.671Z,9.711756
2022-12-26T08:08:42.897Z,9.711765
2022-12-26T08:09:38.658Z,9.711731
2022-12-26T08:10:39.413Z,9.711742
2022-12-26T08:11:37.657Z,9.711701
2022-12-26T08:12:37.617Z,9.711700
2022-12-26T08:13:37.610Z,9.711685
2022-12-26T08:14:37.616Z,9.711800
2022-12-26T08:15:37.601Z,9.711696
2022-12-26T08:16:37.633Z,9.711782
2022-12-26T08:17:37.633Z,9.711669
2022-12-26T08:18:37.588Z,9.711714
2022-12-26T08:19:37.557Z,9.711759
2022-12-26T08:20:37.555Z,9.711927
2022-12-26T08:21:37.551Z,9.711968
2022-12-26T08:22:37.536Z,9.711816
2022-12-26T08:23:37.532Z,9.711829
2022-12-26T08:24:37.531Z,9.711905
2022-12-26T08:25:37.513Z,9.711802
2022-12-26T08:26:37.516Z,9.711764
2022-12-26T08:27:37.544Z,9.711603
2022-12-26T08:28:37.510Z,9.711636
2022-12-26T08:29:37.481Z,9.711792
2022-12-26T08:30:37.488Z,9.711871
2022-12-26T08:31:37.489Z,9.711853
2022-12-26T08:32:39.533Z,9.711865
2022-12-26T08:33:38.461Z,9.711827
2022-12-26T08:34:41.394Z,9.711889
2022-12-26T08:35:37.446Z,9.711784
2022-12-26T08:36:37.421Z,9.711782
2022-12-26T08:37:38.439Z,9.711778
2022-12-26T08:38:37.437Z,9.711867
2022-12-26T08:39:37.411Z,9.711874
2022-12-26T08:40:44.620Z,9.711761
2022-12-26T08:41:39.399Z,9.711793
2022-12-26T08:42:44.774Z,9.711726
2022-12-26T08:44:24.411Z,9.711729
2022-12-26T08:44:39.373Z,9.711789
2022-12-26T08:45:37.382Z,9.711893
2022-12-26T08:46:37.366Z,9.711885
2022-12-26T08:47:37.350Z,9.711994
2022-12-26T08:48:37.334Z,9.712134
2022-12-26T08:49:37.334Z,9.711922
2022-12-26T08:50:40.988Z,9.711628
2022-12-26T08:51:38.342Z,9.711797
2022-12-26T08:52:37.855Z,9.711919
2022-12-26T08:53:37.313Z,9.712036
2022-12-26T08:54:37.286Z,9.711822
2022-12-26T08:55:37.296Z,9.711879
2022-12-26T08:56:37.280Z,9.711892
2022-12-26T08:57:37.266Z,9.711737
2022-12-26T08:58:37.299Z,9.711889
2022-12-26T08:59:37.244Z,9.711992
2022-12-26T09:00:37.244Z,9.711786
2022-12-26T09:01:37.398Z,9.711773
2022-12-26T09:02:37.494Z,9.711773
2022-12-26T09:03:37.219Z,9.711957
2022-12-26T09:04:37.202Z,9.711913
2022-12-26T09:05:37.201Z,9.712275
2022-12-26T09:06:37.212Z,9.712336
2022-12-26T09:07:37.179Z,9.712067
2022-12-26T09:08:37.230Z,9.712135
2022-12-26T09:09:37.155Z,9.712046
2022-12-26T09:10:37.167Z,9.712234
2022-12-26T09:11:37.152Z,9.711980
2022-12-26T09:12:37.157Z,9.712126
2022-12-26T09:13:37.135Z,9.712301
2022-12-26T09:14:37.122Z,9.711763
2022-12-26T09:15:37.123Z,9.711951
2022-12-26T09:16:40.811Z,9.711826
2022-12-26T09:17:39.115Z,9.711800
2022-12-26T09:18:37.097Z,9.711690
2022-12-26T09:19:37.106Z,9.711583
2022-12-26T09:20:37.085Z,9.711502
2022-12-26T09:21:37.863Z,9.711820
2022-12-26T09:22:37.073Z,9.711732
2022-12-26T09:23:37.065Z,9.711343
2022-12-26T09:24:37.056Z,9.711591
2022-12-26T09:25:37.065Z,9.711924
2022-12-26T09:26:37.092Z,9.711721
2022-12-26T09:27:37.033Z,9.711629
2022-12-26T09:28:37.023Z,9.711767
2022-12-26T09:29:37.937Z,9.711807
2022-12-26T09:30:37.072Z,9.711685
2022-12-26T09:31:37.002Z,9.711679
2022-12-26T09:32:37.992Z,9.711707
2022-12-26T09:33:36.987Z,9.711703
2022-12-26T09:34:36.994Z,9.711672
2022-12-26T09:35:36.971Z,9.711679
2022-12-26T09:36:37.018Z,9.711669
2022-12-26T09:37:36.961Z,9.711676
2022-12-26T09:38:36.948Z,9.711660
2022-12-26T09:39:36.943Z,9.711652
2022-12-26T09:40:36.934Z,9.711653
2022-12-26T09:41:36.933Z,9.711657
2022-12-26T09:42:36.925Z,9.711717
2022-12-26T09:43:37.443Z,9.711698
2022-12-26T09:44:36.889Z,9.711664
2022-12-26T09:45:36.885Z,9.711617
2022-12-26T09:46:37.022Z,9.711668
2022-12-26T09:47:36.876Z,9.711688
2022-12-26T09:48:36.859Z,9.711637
2022-12-26T09:49:36.872Z,9.711699
2022-12-26T09:50:42.683Z,9.711678
2022-12-26T09:51:39.364Z,9.711637
2022-12-26T09:52:36.844Z,9.711657
2022-12-26T09:53:36.825Z,9.711652
2022-12-26T09:54:36.819Z,9.711663
2022-12-26T09:55:36.808Z,9.711661
2022-12-26T09:57:01.934Z,9.711679
2022-12-26T09:57:38.793Z,9.711637
2022-12-26T09:58:36.786Z,9.711694
2022-12-26T09:59:36.778Z,9.711662
2022-12-26T10:00:36.778Z,9.711622
2022-12-26T10:01:36.899Z,9.711555
2022-12-26T10:02:36.763Z,9.711725
2022-12-26T10:03:36.743Z,9.711669
2022-12-26T10:04:36.750Z,9.711574
2022-12-26T10:05:36.733Z,9.711675
2022-12-26T10:06:36.724Z,9.711738
2022-12-26T10:07:36.701Z,9.711819
2022-12-26T10:08:36.707Z,9.711839
2022-12-26T10:09:36.698Z,9.711872
2022-12-26T10:10:36.690Z,9.712155
2022-12-26T10:11:36.680Z,9.711502
2022-12-26T10:12:36.703Z,9.711879
2022-12-26T10:13:36.667Z,9.712229
2022-12-26T10:14:36.697Z,9.711975
2022-12-26T10:15:36.687Z,9.711639
2022-12-26T10:16:37.405Z,9.711545
2022-12-26T10:17:36.639Z,9.711572
2022-12-26T10:18:36.612Z,9.711656
2022-12-26T10:19:36.625Z,9.711333
2022-12-26T10:20:36.607Z,9.711796
2022-12-26T10:21:36.595Z,9.711909
2022-12-26T10:22:36.580Z,9.711857
2022-12-26T10:23:36.582Z,9.712059
2022-12-26T10:24:36.561Z,9.711925
2022-12-26T10:25:36.563Z,9.711925
2022-12-26T10:26:36.547Z,9.711772
2022-12-26T10:27:38.377Z,9.712081
2022-12-26T10:28:36.549Z,9.711825
2022-12-26T10:29:36.546Z,9.711642
2022-12-26T10:30:36.519Z,9.711728
2022-12-26T10:31:36.523Z,9.711736
2022-12-26T10:32:36.511Z,9.711776
2022-12-26T10:33:36.502Z,9.711759
2022-12-26T10:34:36.504Z,9.711703
2022-12-26T10:35:36.488Z,9.711794
2022-12-26T10:36:36.476Z,9.711787
2022-12-26T10:37:36.464Z,9.711740
2022-12-26T10:38:38.976Z,9.711790
2022-12-26T10:39:36.462Z,9.711775
2022-12-26T10:40:36.437Z,9.711762
2022-12-26T10:41:36.462Z,9.711732
2022-12-26T10:42:37.383Z,9.711642
2022-12-26T10:43:36.417Z,9.711735
2022-12-26T10:44:36.409Z,9.711703
2022-12-26T10:45:36.413Z,9.711759
2022-12-26T10:46:36.511Z,9.711667
2022-12-26T10:47:37.990Z,9.711623
2022-12-26T10:48:36.377Z,9.711650
2022-12-26T10:49:36.374Z,9.711710
2022-12-26T10:50:37.894Z,9.711687
2022-12-26T10:51:36.358Z,9.711673
2022-12-26T10:52:36.347Z,9.711627
2022-12-26T10:53:36.341Z,9.711680
2022-12-26T10:54:36.346Z,9.711699
2022-12-26T10:55:36.337Z,9.711754
2022-12-26T10:56:36.323Z,9.711755
2022-12-26T10:57:36.314Z,9.711709
2022-12-26T10:58:36.312Z,9.711658
2022-12-26T10:59:36.355Z,9.711668
2022-12-26T11:00:36.282Z,9.711698
2022-12-26T11:01:36.456Z,9.711767
2022-12-26T11:02:37.508Z,9.711786
2022-12-26T11:03:39.056Z,9.711780
2022-12-26T11:06:09.579Z,9.711776
2022-12-26T11:06:38.243Z,9.711744
2022-12-26T11:07:36.233Z,9.711771
2022-12-26T11:08:40.849Z,9.711784
2022-12-26T11:09:38.947Z,9.711769
2022-12-26T11:10:37.974Z,9.711699
2022-12-26T11:11:36.206Z,9.711733
2022-12-26T11:12:36.191Z,9.711764
2022-12-26T11:13:36.969Z,9.711729
2022-12-26T11:14:36.207Z,9.711759
2022-12-26T11:15:36.302Z,9.711882
2022-12-26T11:16:36.161Z,9.711732
2022-12-26T11:17:36.149Z,9.711770
2022-12-26T11:18:36.155Z,9.711802
2022-12-26T11:19:36.138Z,9.711835
2022-12-26T11:20:36.122Z,9.711702
2022-12-26T11:21:36.106Z,9.711663
2022-12-26T11:22:37.131Z,9.711699
2022-12-26T11:23:36.107Z,9.711627
2022-12-26T11:24:36.103Z,9.711885
2022-12-26T11:25:36.078Z,9.711711
2022-12-26T11:26:36.077Z,9.711814
2022-12-26T11:27:36.059Z,9.711742
2022-12-26T11:28:37.003Z,9.711711
2022-12-26T11:35:49.910Z,9.711749
2022-12-26T11:36:48.755Z,9.711528
2022-12-26T11:37:43.939Z,9.711700
2022-12-26T11:44:58.571Z,9.711819
2022-12-26T11:45:56.750Z,9.711707
2022-12-26T11:46:57.796Z,9.711693
2022-12-26T11:47:56.772Z,9.711897
2022-12-26T11:48:56.742Z,9.711983
2022-12-26T11:49:56.732Z,9.711954
2022-12-26T11:50:56.724Z,9.711881
2022-12-26T11:51:59.600Z,9.712006
2022-12-26T11:52:57.717Z,9.711981
2022-12-26T11:57:05.726Z,9.711873
2022-12-26T11:58:05.714Z,9.711863
2022-12-26T11:59:05.701Z,9.711823
2022-12-26T12:00:15.349Z,9.711893
2022-12-26T12:01:05.944Z,9.711944
2022-12-26T12:02:05.757Z,9.711823
2022-12-26T12:03:05.711Z,9.711867
2022-12-26T12:04:05.697Z,9.711882
2022-12-26T12:05:09.351Z,9.712027
2022-12-26T12:06:05.662Z,9.711642
2022-12-26T12:07:05.650Z,9.711401
2022-12-26T12:08:05.645Z,9.711658
2022-12-26T12:09:06.483Z,9.711667
2022-12-26T12:10:38.348Z,9.711664
2022-12-26T12:11:05.641Z,9.711617
2022-12-26T12:12:05.595Z,9.711606
2022-12-26T12:13:06.602Z,9.711601
2022-12-26T12:14:06.440Z,9.711514
2022-12-26T12:15:05.578Z,9.711496
2022-12-26T12:16:05.635Z,9.711541
2022-12-26T12:17:05.583Z,9.711545
2022-12-26T12:18:05.575Z,9.711581
2022-12-26T12:19:05.548Z,9.711529
2022-12-26T12:20:05.550Z,9.711511
2022-12-26T12:21:05.546Z,9.711602
2022-12-26T12:22:05.534Z,9.711597
2022-12-26T12:23:05.515Z,9.711588
2022-12-26T12:24:05.512Z,9.711598
2022-12-26T12:25:05.512Z,9.711620
2022-12-26T12:26:05.503Z,9.711636
2022-12-26T12:27:06.441Z,9.711654